sensor_id;sensor_type;location;lat;lon;timestamp;P1;durP1;ratioP1;P2;durP2;ratioP2
14619;SDS011;32125;48.518;9.050;2023-01-24T00:00:51;24.13;;;16.93;;
14619;SDS011;32125;48.518;9.050;2023-01-24T00:03:17;22.23;;;15.30;;
14619;SDS011;32125;48.518;9.050;2023-01-24T00:05:44;22.70;;;16.00;;
14619;SDS011;32125;48.518;9.050;2023-01-24T00:08:14;24.60;;;16.43;;
14619;SDS011;32125;48.518;9.050;2023-01-24T00:10:43;22.53;;;15.93;;
14619;SDS011;32125;48.518;9.050;2023-01-24T00:13:11;22.50;;;16.00;;
14619;SDS011;32125;48.518;9.050;2023-01-24T00:15:38;21.10;;;15.00;;
14619;SDS011;32125;48.518;9.050;2023-01-24T00:18:04;21.80;;;15.70;;
14619;SDS011;32125;48.518;9.050;2023-01-24T00:20:30;23.23;;;15.57;;
14619;SDS011;32125;48.518;9.050;2023-01-24T00:22:58;21.73;;;15.87;;
14619;SDS011;32125;48.518;9.050;2023-01-24T00:25:24;21.73;;;15.20;;
14619;SDS011;32125;48.518;9.050;2023-01-24T00:27:50;23.93;;;16.27;;
14619;SDS011;32125;48.518;9.050;2023-01-24T00:30:16;21.93;;;15.73;;
14619;SDS011;32125;48.518;9.050;2023-01-24T00:32:42;26.03;;;15.63;;
14619;SDS011;32125;48.518;9.050;2023-01-24T00:35:07;23.53;;;15.70;;
14619;SDS011;32125;48.518;9.050;2023-01-24T00:37:33;21.27;;;15.40;;
14619;SDS011;32125;48.518;9.050;2023-01-24T00:39:59;21.63;;;15.40;;
14619;SDS011;32125;48.518;9.050;2023-01-24T00:42:25;22.57;;;15.07;;
14619;SDS011;32125;48.518;9.050;2023-01-24T00:44:51;22.33;;;15.27;;
14619;SDS011;32125;48.518;9.050;2023-01-24T00:47:17;22.17;;;15.60;;
14619;SDS011;32125;48.518;9.050;2023-01-24T00:49:43;23.47;;;15.27;;
14619;SDS011;32125;48.518;9.050;2023-01-24T00:52:08;22.03;;;15.33;;
14619;SDS011;32125;48.518;9.050;2023-01-24T00:54:34;21.77;;;14.87;;
14619;SDS011;32125;48.518;9.050;2023-01-24T00:57:02;23.97;;;15.90;;
14619;SDS011;32125;48.518;9.050;2023-01-24T00:59:30;21.73;;;15.10;;
14619;SDS011;32125;48.518;9.050;2023-01-24T01:01:56;21.93;;;14.43;;
14619;SDS011;32125;48.518;9.050;2023-01-24T01:04:21;21.53;;;14.57;;
14619;SDS011;32125;48.518;9.050;2023-01-24T01:06:48;22.43;;;14.87;;
14619;SDS011;32125;48.518;9.050;2023-01-24T01:09:14;23.83;;;15.20;;
14619;SDS011;32125;48.518;9.050;2023-01-24T01:11:40;21.33;;;14.90;;
14619;SDS011;32125;48.518;9.050;2023-01-24T01:14:09;23.83;;;15.13;;
14619;SDS011;32125;48.518;9.050;2023-01-24T01:16:37;21.83;;;14.63;;
14619;SDS011;32125;48.518;9.050;2023-01-24T01:19:03;21.77;;;15.03;;
14619;SDS011;32125;48.518;9.050;2023-01-24T01:21:29;20.83;;;14.77;;
14619;SDS011;32125;48.518;9.050;2023-01-24T01:23:55;20.73;;;14.80;;
14619;SDS011;32125;48.518;9.050;2023-01-24T01:26:21;21.60;;;14.50;;
14619;SDS011;32125;48.518;9.050;2023-01-24T01:28:47;21.07;;;14.23;;
14619;SDS011;32125;48.518;9.050;2023-01-24T01:31:14;20.37;;;13.80;;
14619;SDS011;32125;48.518;9.050;2023-01-24T01:33:40;21.60;;;14.47;;
14619;SDS011;32125;48.518;9.050;2023-01-24T01:36:07;19.87;;;13.97;;
14619;SDS011;32125;48.518;9.050;2023-01-24T01:38:36;22.97;;;15.13;;
14619;SDS011;32125;48.518;9.050;2023-01-24T01:41:02;20.60;;;13.57;;
14619;SDS011;32125;48.518;9.050;2023-01-24T01:43:29;22.30;;;14.80;;
14619;SDS011;32125;48.518;9.050;2023-01-24T01:46:15;19.80;;;14.43;;
14619;SDS011;32125;48.518;9.050;2023-01-24T01:48:45;22.87;;;15.50;;
14619;SDS011;32125;48.518;9.050;2023-01-24T01:51:20;21.40;;;14.67;;
14619;SDS011;32125;48.518;9.050;2023-01-24T01:56:25;20.57;;;14.63;;
14619;SDS011;32125;48.518;9.050;2023-01-24T01:58:55;21.63;;;15.00;;
14619;SDS011;32125;48.518;9.050;2023-01-24T02:01:24;22.20;;;15.13;;
14619;SDS011;32125;48.518;9.050;2023-01-24T02:03:51;22.97;;;15.50;;
14619;SDS011;32125;48.518;9.050;2023-01-24T02:08:51;22.47;;;15.23;;
14619;SDS011;32125;48.518;9.050;2023-01-24T02:11:17;23.37;;;15.73;;
14619;SDS011;32125;48.518;9.050;2023-01-24T02:14:02;22.63;;;15.33;;
14619;SDS011;32125;48.518;9.050;2023-01-24T02:16:47;22.83;;;15.97;;
14619;SDS011;32125;48.518;9.050;2023-01-24T02:21:52;23.60;;;15.77;;
14619;SDS011;32125;48.518;9.050;2023-01-24T02:24:38;21.33;;;15.30;;
14619;SDS011;32125;48.518;9.050;2023-01-24T02:27:08;23.53;;;15.57;;
14619;SDS011;32125;48.518;9.050;2023-01-24T02:29:34;23.90;;;15.70;;
14619;SDS011;32125;48.518;9.050;2023-01-24T02:32:05;25.73;;;16.57;;
14619;SDS011;32125;48.518;9.050;2023-01-24T02:34:33;24.10;;;15.70;;
14619;SDS011;32125;48.518;9.050;2023-01-24T02:37:00;23.43;;;15.93;;
14619;SDS011;32125;48.518;9.050;2023-01-24T02:42:34;22.87;;;15.30;;
14619;SDS011;32125;48.518;9.050;2023-01-24T02:45:21;22.33;;;15.03;;
14619;SDS011;32125;48.518;9.050;2023-01-24T02:47:51;22.03;;;15.03;;
14619;SDS011;32125;48.518;9.050;2023-01-24T02:50:18;24.47;;;15.50;;
14619;SDS011;32125;48.518;9.050;2023-01-24T02:52:46;25.53;;;16.03;;
14619;SDS011;32125;48.518;9.050;2023-01-24T02:55:31;23.97;;;16.70;;
14619;SDS011;32125;48.518;9.050;2023-01-24T02:57:57;24.50;;;16.37;;
14619;SDS011;32125;48.518;9.050;2023-01-24T03:00:34;24.03;;;16.53;;
14619;SDS011;32125;48.518;9.050;2023-01-24T03:03:06;23.83;;;15.20;;
14619;SDS011;32125;48.518;9.050;2023-01-24T03:05:33;26.67;;;15.77;;
14619;SDS011;32125;48.518;9.050;2023-01-24T03:08:21;25.23;;;15.97;;
14619;SDS011;32125;48.518;9.050;2023-01-24T03:10:47;25.77;;;16.00;;
14619;SDS011;32125;48.518;9.050;2023-01-24T03:13:13;25.10;;;15.27;;
14619;SDS011;32125;48.518;9.050;2023-01-24T03:16:00;22.97;;;16.07;;
14619;SDS011;32125;48.518;9.050;2023-01-24T03:18:45;24.37;;;16.60;;
14619;SDS011;32125;48.518;9.050;2023-01-24T03:21:29;24.93;;;15.83;;
14619;SDS011;32125;48.518;9.050;2023-01-24T03:24:13;23.57;;;15.53;;
14619;SDS011;32125;48.518;9.050;2023-01-24T03:27:00;25.60;;;15.90;;
14619;SDS011;32125;48.518;9.050;2023-01-24T03:29:44;25.30;;;17.10;;
14619;SDS011;32125;48.518;9.050;2023-01-24T03:32:29;23.37;;;15.50;;
14619;SDS011;32125;48.518;9.050;2023-01-24T03:35:13;23.57;;;16.27;;
14619;SDS011;32125;48.518;9.050;2023-01-24T03:37:39;24.07;;;15.93;;
14619;SDS011;32125;48.518;9.050;2023-01-24T03:40:27;25.40;;;16.53;;
14619;SDS011;32125;48.518;9.050;2023-01-24T03:42:52;24.83;;;15.30;;
14619;SDS011;32125;48.518;9.050;2023-01-24T03:45:19;21.47;;;14.97;;
14619;SDS011;32125;48.518;9.050;2023-01-24T03:47:48;24.73;;;15.47;;
14619;SDS011;32125;48.518;9.050;2023-01-24T03:50:22;22.80;;;15.03;;
14619;SDS011;32125;48.518;9.050;2023-01-24T03:53:07;26.00;;;16.13;;
14619;SDS011;32125;48.518;9.050;2023-01-24T03:55:34;26.10;;;16.13;;
14619;SDS011;32125;48.518;9.050;2023-01-24T03:58:00;23.50;;;15.40;;
14619;SDS011;32125;48.518;9.050;2023-01-24T04:00:26;23.23;;;15.67;;
14619;SDS011;32125;48.518;9.050;2023-01-24T04:02:53;23.13;;;15.40;;
14619;SDS011;32125;48.518;9.050;2023-01-24T04:05:19;23.50;;;15.90;;
14619;SDS011;32125;48.518;9.050;2023-01-24T04:07:45;24.17;;;16.30;;
14619;SDS011;32125;48.518;9.050;2023-01-24T04:10:14;22.73;;;15.23;;
14619;SDS011;32125;48.518;9.050;2023-01-24T04:12:41;24.50;;;16.03;;
14619;SDS011;32125;48.518;9.050;2023-01-24T04:15:07;24.37;;;16.03;;
14619;SDS011;32125;48.518;9.050;2023-01-24T04:17:38;24.47;;;15.60;;
14619;SDS011;32125;48.518;9.050;2023-01-24T04:20:04;23.93;;;15.37;;
14619;SDS011;32125;48.518;9.050;2023-01-24T04:22:30;23.23;;;15.47;;
14619;SDS011;32125;48.518;9.050;2023-01-24T04:24:56;21.57;;;15.03;;
14619;SDS011;32125;48.518;9.050;2023-01-24T04:27:22;22.93;;;15.70;;
14619;SDS011;32125;48.518;9.050;2023-01-24T04:29:50;23.87;;;15.13;;
14619;SDS011;32125;48.518;9.050;2023-01-24T04:32:18;24.50;;;15.77;;
14619;SDS011;32125;48.518;9.050;2023-01-24T04:34:44;24.70;;;15.80;;
14619;SDS011;32125;48.518;9.050;2023-01-24T04:37:10;22.93;;;15.30;;
14619;SDS011;32125;48.518;9.050;2023-01-24T04:39:36;22.40;;;15.13;;
14619;SDS011;32125;48.518;9.050;2023-01-24T04:42:04;22.93;;;14.50;;
14619;SDS011;32125;48.518;9.050;2023-01-24T04:44:31;20.90;;;14.37;;
14619;SDS011;32125;48.518;9.050;2023-01-24T04:46:59;24.20;;;15.10;;
14619;SDS011;32125;48.518;9.050;2023-01-24T04:49:25;25.10;;;16.10;;
14619;SDS011;32125;48.518;9.050;2023-01-24T04:51:51;21.47;;;15.00;;
14619;SDS011;32125;48.518;9.050;2023-01-24T04:54:20;23.00;;;15.93;;
14619;SDS011;32125;48.518;9.050;2023-01-24T04:56:49;24.03;;;15.13;;
14619;SDS011;32125;48.518;9.050;2023-01-24T04:59:23;21.33;;;15.27;;
14619;SDS011;32125;48.518;9.050;2023-01-24T05:01:49;23.90;;;16.03;;
14619;SDS011;32125;48.518;9.050;2023-01-24T05:04:18;22.83;;;15.33;;
14619;SDS011;32125;48.518;9.050;2023-01-24T05:06:45;23.90;;;15.23;;
14619;SDS011;32125;48.518;9.050;2023-01-24T05:09:11;24.43;;;16.17;;
14619;SDS011;32125;48.518;9.050;2023-01-24T05:11:37;23.40;;;15.77;;
14619;SDS011;32125;48.518;9.050;2023-01-24T05:14:03;22.90;;;15.27;;
14619;SDS011;32125;48.518;9.050;2023-01-24T05:16:29;25.00;;;16.47;;
14619;SDS011;32125;48.518;9.050;2023-01-24T05:18:55;27.00;;;16.93;;
14619;SDS011;32125;48.518;9.050;2023-01-24T05:21:20;23.47;;;15.60;;
14619;SDS011;32125;48.518;9.050;2023-01-24T05:23:50;23.00;;;15.60;;
14619;SDS011;32125;48.518;9.050;2023-01-24T05:26:18;24.33;;;15.80;;
14619;SDS011;32125;48.518;9.050;2023-01-24T05:28:44;24.47;;;15.93;;
14619;SDS011;32125;48.518;9.050;2023-01-24T05:31:10;22.40;;;15.53;;
14619;SDS011;32125;48.518;9.050;2023-01-24T05:33:36;24.67;;;16.23;;
14619;SDS011;32125;48.518;9.050;2023-01-24T05:36:03;25.40;;;16.37;;
14619;SDS011;32125;48.518;9.050;2023-01-24T05:38:32;22.67;;;15.93;;
14619;SDS011;32125;48.518;9.050;2023-01-24T05:41:03;26.33;;;17.33;;
14619;SDS011;32125;48.518;9.050;2023-01-24T05:43:31;24.57;;;16.30;;
14619;SDS011;32125;48.518;9.050;2023-01-24T05:45:58;27.17;;;16.70;;
14619;SDS011;32125;48.518;9.050;2023-01-24T05:48:25;27.03;;;16.83;;
14619;SDS011;32125;48.518;9.050;2023-01-24T05:50:55;27.50;;;17.53;;
14619;SDS011;32125;48.518;9.050;2023-01-24T05:53:27;24.43;;;16.40;;
14619;SDS011;32125;48.518;9.050;2023-01-24T05:55:57;28.57;;;17.33;;
14619;SDS011;32125;48.518;9.050;2023-01-24T05:58:26;27.77;;;17.10;;
14619;SDS011;32125;48.518;9.050;2023-01-24T06:00:55;24.67;;;16.77;;
14619;SDS011;32125;48.518;9.050;2023-01-24T06:03:21;23.87;;;16.30;;
14619;SDS011;32125;48.518;9.050;2023-01-24T06:05:51;26.33;;;17.10;;
14619;SDS011;32125;48.518;9.050;2023-01-24T06:08:18;24.50;;;16.33;;
14619;SDS011;32125;48.518;9.050;2023-01-24T06:10:44;26.10;;;16.90;;
14619;SDS011;32125;48.518;9.050;2023-01-24T06:13:11;24.23;;;16.27;;
14619;SDS011;32125;48.518;9.050;2023-01-24T06:15:37;27.43;;;17.27;;
14619;SDS011;32125;48.518;9.050;2023-01-24T06:18:03;26.60;;;17.07;;
14619;SDS011;32125;48.518;9.050;2023-01-24T06:20:29;25.50;;;17.07;;
14619;SDS011;32125;48.518;9.050;2023-01-24T06:23:05;25.60;;;17.10;;
14619;SDS011;32125;48.518;9.050;2023-01-24T06:25:32;25.77;;;16.97;;
14619;SDS011;32125;48.518;9.050;2023-01-24T06:28:01;28.40;;;17.30;;
14619;SDS011;32125;48.518;9.050;2023-01-24T06:30:30;24.67;;;16.93;;
14619;SDS011;32125;48.518;9.050;2023-01-24T06:35:51;26.03;;;16.77;;
14619;SDS011;32125;48.518;9.050;2023-01-24T06:38:37;26.73;;;17.20;;
14619;SDS011;32125;48.518;9.050;2023-01-24T06:41:12;25.97;;;17.07;;
14619;SDS011;32125;48.518;9.050;2023-01-24T06:43:40;27.33;;;17.97;;
14619;SDS011;32125;48.518;9.050;2023-01-24T06:46:14;26.40;;;16.93;;
14619;SDS011;32125;48.518;9.050;2023-01-24T06:48:43;27.07;;;17.23;;
14619;SDS011;32125;48.518;9.050;2023-01-24T06:51:11;27.03;;;17.40;;
14619;SDS011;32125;48.518;9.050;2023-01-24T06:53:38;26.83;;;18.07;;
14619;SDS011;32125;48.518;9.050;2023-01-24T06:56:04;28.40;;;17.67;;
14619;SDS011;32125;48.518;9.050;2023-01-24T06:58:32;27.17;;;17.33;;
14619;SDS011;32125;48.518;9.050;2023-01-24T07:00:58;27.40;;;17.47;;
14619;SDS011;32125;48.518;9.050;2023-01-24T07:03:24;25.00;;;17.13;;
14619;SDS011;32125;48.518;9.050;2023-01-24T07:05:51;25.40;;;17.20;;
14619;SDS011;32125;48.518;9.050;2023-01-24T07:08:16;24.87;;;16.33;;
14619;SDS011;32125;48.518;9.050;2023-01-24T07:10:44;25.07;;;16.50;;
14619;SDS011;32125;48.518;9.050;2023-01-24T07:13:10;25.23;;;16.33;;
14619;SDS011;32125;48.518;9.050;2023-01-24T07:15:41;25.57;;;17.13;;
14619;SDS011;32125;48.518;9.050;2023-01-24T07:18:15;25.70;;;16.57;;
14619;SDS011;32125;48.518;9.050;2023-01-24T07:20:42;26.13;;;17.70;;
14619;SDS011;32125;48.518;9.050;2023-01-24T07:23:21;24.57;;;16.87;;
14619;SDS011;32125;48.518;9.050;2023-01-24T07:25:53;26.73;;;17.03;;
14619;SDS011;32125;48.518;9.050;2023-01-24T07:28:20;28.57;;;17.40;;
14619;SDS011;32125;48.518;9.050;2023-01-24T07:30:46;25.93;;;16.93;;
14619;SDS011;32125;48.518;9.050;2023-01-24T07:33:14;26.67;;;17.57;;
14619;SDS011;32125;48.518;9.050;2023-01-24T07:35:40;28.07;;;17.73;;
14619;SDS011;32125;48.518;9.050;2023-01-24T07:38:06;28.37;;;17.60;;
14619;SDS011;32125;48.518;9.050;2023-01-24T07:40:32;26.33;;;16.93;;
14619;SDS011;32125;48.518;9.050;2023-01-24T07:42:59;24.63;;;15.90;;
14619;SDS011;32125;48.518;9.050;2023-01-24T07:45:26;23.03;;;15.83;;
14619;SDS011;32125;48.518;9.050;2023-01-24T07:47:55;26.30;;;16.90;;
14619;SDS011;32125;48.518;9.050;2023-01-24T07:50:22;23.23;;;15.77;;
14619;SDS011;32125;48.518;9.050;2023-01-24T07:52:53;22.47;;;15.67;;
14619;SDS011;32125;48.518;9.050;2023-01-24T07:55:20;24.33;;;16.17;;
14619;SDS011;32125;48.518;9.050;2023-01-24T07:57:46;23.40;;;15.93;;
14619;SDS011;32125;48.518;9.050;2023-01-24T08:00:13;23.73;;;15.37;;
14619;SDS011;32125;48.518;9.050;2023-01-24T08:02:40;24.87;;;15.67;;
14619;SDS011;32125;48.518;9.050;2023-01-24T08:05:06;21.83;;;15.30;;
14619;SDS011;32125;48.518;9.050;2023-01-24T08:07:32;22.67;;;15.80;;
14619;SDS011;32125;48.518;9.050;2023-01-24T08:10:00;24.40;;;15.97;;
14619;SDS011;32125;48.518;9.050;2023-01-24T08:12:29;22.20;;;15.50;;
14619;SDS011;32125;48.518;9.050;2023-01-24T08:14:54;22.63;;;15.70;;
14619;SDS011;32125;48.518;9.050;2023-01-24T08:17:20;20.40;;;14.30;;
14619;SDS011;32125;48.518;9.050;2023-01-24T08:19:49;23.43;;;15.03;;
14619;SDS011;32125;48.518;9.050;2023-01-24T08:22:18;22.10;;;15.00;;
14619;SDS011;32125;48.518;9.050;2023-01-24T08:24:44;20.60;;;14.33;;
14619;SDS011;32125;48.518;9.050;2023-01-24T08:27:10;21.50;;;14.73;;
14619;SDS011;32125;48.518;9.050;2023-01-24T08:29:36;22.00;;;14.53;;
14619;SDS011;32125;48.518;9.050;2023-01-24T08:32:02;19.37;;;13.87;;
14619;SDS011;32125;48.518;9.050;2023-01-24T08:34:28;20.63;;;14.30;;
14619;SDS011;32125;48.518;9.050;2023-01-24T08:36:54;20.37;;;14.03;;
14619;SDS011;32125;48.518;9.050;2023-01-24T08:39:20;20.30;;;14.23;;
14619;SDS011;32125;48.518;9.050;2023-01-24T08:41:46;28.07;;;14.70;;
14619;SDS011;32125;48.518;9.050;2023-01-24T08:44:14;19.03;;;13.23;;
14619;SDS011;32125;48.518;9.050;2023-01-24T08:49:19;22.70;;;14.40;;
14619;SDS011;32125;48.518;9.050;2023-01-24T08:51:45;21.20;;;14.10;;
14619;SDS011;32125;48.518;9.050;2023-01-24T08:54:12;20.67;;;13.57;;
14619;SDS011;32125;48.518;9.050;2023-01-24T08:56:38;20.03;;;13.37;;
14619;SDS011;32125;48.518;9.050;2023-01-24T08:59:05;18.90;;;13.27;;
14619;SDS011;32125;48.518;9.050;2023-01-24T09:01:31;17.50;;;13.20;;
14619;SDS011;32125;48.518;9.050;2023-01-24T09:03:58;21.40;;;14.47;;
14619;SDS011;32125;48.518;9.050;2023-01-24T09:06:24;20.47;;;13.97;;
14619;SDS011;32125;48.518;9.050;2023-01-24T09:08:53;19.53;;;13.93;;
14619;SDS011;32125;48.518;9.050;2023-01-24T09:11:20;21.70;;;14.50;;
14619;SDS011;32125;48.518;9.050;2023-01-24T09:13:46;19.43;;;14.20;;
14619;SDS011;32125;48.518;9.050;2023-01-24T09:16:11;18.93;;;12.83;;
14619;SDS011;32125;48.518;9.050;2023-01-24T09:18:37;20.77;;;13.73;;
14619;SDS011;32125;48.518;9.050;2023-01-24T09:21:09;19.37;;;13.73;;
14619;SDS011;32125;48.518;9.050;2023-01-24T09:24:21;18.90;;;12.87;;
14619;SDS011;32125;48.518;9.050;2023-01-24T09:26:47;19.87;;;12.93;;
14619;SDS011;32125;48.518;9.050;2023-01-24T09:29:14;21.30;;;13.50;;
14619;SDS011;32125;48.518;9.050;2023-01-24T09:31:41;20.30;;;13.27;;
14619;SDS011;32125;48.518;9.050;2023-01-24T09:34:07;19.07;;;13.23;;
14619;SDS011;32125;48.518;9.050;2023-01-24T09:36:33;18.30;;;12.63;;
14619;SDS011;32125;48.518;9.050;2023-01-24T09:38:59;19.83;;;13.80;;
14619;SDS011;32125;48.518;9.050;2023-01-24T09:41:30;18.27;;;12.63;;
14619;SDS011;32125;48.518;9.050;2023-01-24T09:44:03;20.77;;;13.13;;
14619;SDS011;32125;48.518;9.050;2023-01-24T09:46:35;18.53;;;12.80;;
14619;SDS011;32125;48.518;9.050;2023-01-24T09:51:45;19.83;;;13.57;;
14619;SDS011;32125;48.518;9.050;2023-01-24T09:54:18;19.67;;;13.23;;
14619;SDS011;32125;48.518;9.050;2023-01-24T09:56:45;18.77;;;12.77;;
14619;SDS011;32125;48.518;9.050;2023-01-24T10:01:46;20.07;;;12.93;;
14619;SDS011;32125;48.518;9.050;2023-01-24T10:04:21;21.40;;;13.50;;
14619;SDS011;32125;48.518;9.050;2023-01-24T10:06:58;18.67;;;12.80;;
14619;SDS011;32125;48.518;9.050;2023-01-24T10:09:43;19.83;;;12.77;;
14619;SDS011;32125;48.518;9.050;2023-01-24T10:12:20;18.47;;;12.67;;
14619;SDS011;32125;48.518;9.050;2023-01-24T10:17:25;19.63;;;13.30;;
14619;SDS011;32125;48.518;9.050;2023-01-24T10:22:42;18.93;;;13.23;;
14619;SDS011;32125;48.518;9.050;2023-01-24T10:25:18;18.27;;;12.50;;
14619;SDS011;32125;48.518;9.050;2023-01-24T10:27:52;20.57;;;12.93;;
14619;SDS011;32125;48.518;9.050;2023-01-24T10:30:26;18.10;;;12.67;;
14619;SDS011;32125;48.518;9.050;2023-01-24T10:32:59;19.27;;;12.87;;
14619;SDS011;32125;48.518;9.050;2023-01-24T10:35:36;17.67;;;12.67;;
14619;SDS011;32125;48.518;9.050;2023-01-24T10:38:11;17.10;;;12.23;;
14619;SDS011;32125;48.518;9.050;2023-01-24T10:40:48;18.23;;;12.13;;
14619;SDS011;32125;48.518;9.050;2023-01-24T10:43:20;19.30;;;12.33;;
14619;SDS011;32125;48.518;9.050;2023-01-24T10:46:12;15.73;;;11.40;;
14619;SDS011;32125;48.518;9.050;2023-01-24T10:48:49;17.73;;;12.63;;
14619;SDS011;32125;48.518;9.050;2023-01-24T10:51:19;18.53;;;12.67;;
14619;SDS011;32125;48.518;9.050;2023-01-24T10:53:47;16.03;;;11.53;;
14619;SDS011;32125;48.518;9.050;2023-01-24T10:56:15;17.87;;;12.00;;
14619;SDS011;32125;48.518;9.050;2023-01-24T11:01:19;16.77;;;11.67;;
14619;SDS011;32125;48.518;9.050;2023-01-24T11:03:48;16.67;;;11.93;;
14619;SDS011;32125;48.518;9.050;2023-01-24T11:08:52;14.97;;;10.93;;
14619;SDS011;32125;48.518;9.050;2023-01-24T11:11:30;16.37;;;11.03;;
14619;SDS011;32125;48.518;9.050;2023-01-24T11:13:58;18.37;;;11.83;;
14619;SDS011;32125;48.518;9.050;2023-01-24T11:16:41;14.40;;;11.37;;
14619;SDS011;32125;48.518;9.050;2023-01-24T11:19:09;15.53;;;10.80;;
14619;SDS011;32125;48.518;9.050;2023-01-24T11:21:57;17.77;;;11.27;;
14619;SDS011;32125;48.518;9.050;2023-01-24T11:24:26;16.23;;;10.80;;
14619;SDS011;32125;48.518;9.050;2023-01-24T11:29:25;16.77;;;11.10;;
14619;SDS011;32125;48.518;9.050;2023-01-24T11:31:52;15.20;;;10.97;;
14619;SDS011;32125;48.518;9.050;2023-01-24T11:47:39;18.63;;;11.97;;
14619;SDS011;32125;48.518;9.050;2023-01-24T12:11:29;15.93;;;10.57;;
14619;SDS011;32125;48.518;9.050;2023-01-24T12:21:37;14.80;;;10.23;;
14619;SDS011;32125;48.518;9.050;2023-01-24T12:24:26;15.07;;;10.60;;
14619;SDS011;32125;48.518;9.050;2023-01-24T12:26:51;15.13;;;10.63;;
14619;SDS011;32125;48.518;9.050;2023-01-24T12:29:30;15.87;;;11.07;;
14619;SDS011;32125;48.518;9.050;2023-01-24T12:31:59;15.07;;;10.63;;
14619;SDS011;32125;48.518;9.050;2023-01-24T12:36:57;13.83;;;10.47;;
14619;SDS011;32125;48.518;9.050;2023-01-24T12:39:27;14.13;;;10.07;;
14619;SDS011;32125;48.518;9.050;2023-01-24T12:41:57;15.67;;;10.90;;
14619;SDS011;32125;48.518;9.050;2023-01-24T12:44:38;14.73;;;10.67;;
14619;SDS011;32125;48.518;9.050;2023-01-24T12:49:43;13.93;;;10.50;;
14619;SDS011;32125;48.518;9.050;2023-01-24T12:52:19;14.13;;;10.57;;
14619;SDS011;32125;48.518;9.050;2023-01-24T12:55:00;13.37;;;10.00;;
14619;SDS011;32125;48.518;9.050;2023-01-24T12:57:39;13.93;;;9.93;;
14619;SDS011;32125;48.518;9.050;2023-01-24T13:00:14;14.93;;;10.10;;
14619;SDS011;32125;48.518;9.050;2023-01-24T13:11:20;14.83;;;10.17;;
14619;SDS011;32125;48.518;9.050;2023-01-24T13:22:26;14.87;;;10.73;;
14619;SDS011;32125;48.518;9.050;2023-01-24T13:28:17;13.80;;;10.30;;
14619;SDS011;32125;48.518;9.050;2023-01-24T13:33:36;14.70;;;10.20;;
14619;SDS011;32125;48.518;9.050;2023-01-24T13:36:05;15.90;;;11.57;;
14619;SDS011;32125;48.518;9.050;2023-01-24T13:38:39;21.50;;;15.53;;
14619;SDS011;32125;48.518;9.050;2023-01-24T13:41:16;17.33;;;10.97;;
14619;SDS011;32125;48.518;9.050;2023-01-24T13:51:57;19.27;;;13.87;;
14619;SDS011;32125;48.518;9.050;2023-01-24T13:54:36;15.40;;;10.27;;
14619;SDS011;32125;48.518;9.050;2023-01-24T13:59:39;13.83;;;10.57;;
14619;SDS011;32125;48.518;9.050;2023-01-24T14:02:23;13.60;;;10.00;;
14619;SDS011;32125;48.518;9.050;2023-01-24T14:04:51;16.17;;;11.23;;
14619;SDS011;32125;48.518;9.050;2023-01-24T14:07:28;14.93;;;12.07;;
14619;SDS011;32125;48.518;9.050;2023-01-24T14:09:59;13.93;;;9.50;;
14619;SDS011;32125;48.518;9.050;2023-01-24T14:12:25;15.43;;;11.53;;
14619;SDS011;32125;48.518;9.050;2023-01-24T14:22:55;13.17;;;9.40;;
14619;SDS011;32125;48.518;9.050;2023-01-24T14:25:34;12.70;;;9.00;;
14619;SDS011;32125;48.518;9.050;2023-01-24T14:31:23;12.27;;;9.00;;
14619;SDS011;32125;48.518;9.050;2023-01-24T14:36:31;14.37;;;10.00;;
14619;SDS011;32125;48.518;9.050;2023-01-24T14:41:42;12.33;;;9.17;;
14619;SDS011;32125;48.518;9.050;2023-01-24T14:44:24;13.17;;;9.47;;
14619;SDS011;32125;48.518;9.050;2023-01-24T14:47:00;14.20;;;9.50;;
14619;SDS011;32125;48.518;9.050;2023-01-24T14:51:52;13.27;;;9.57;;
14619;SDS011;32125;48.518;9.050;2023-01-24T14:54:20;11.70;;;8.80;;
14619;SDS011;32125;48.518;9.050;2023-01-24T14:56:46;13.40;;;9.30;;
14619;SDS011;32125;48.518;9.050;2023-01-24T14:59:12;13.83;;;9.90;;
14619;SDS011;32125;48.518;9.050;2023-01-24T15:01:39;11.87;;;9.23;;
14619;SDS011;32125;48.518;9.050;2023-01-24T15:04:05;15.43;;;10.33;;
14619;SDS011;32125;48.518;9.050;2023-01-24T15:06:31;15.83;;;10.67;;
14619;SDS011;32125;48.518;9.050;2023-01-24T15:08:58;16.53;;;10.57;;
14619;SDS011;32125;48.518;9.050;2023-01-24T15:11:32;13.90;;;9.80;;
14619;SDS011;32125;48.518;9.050;2023-01-24T15:14:01;16.30;;;10.67;;
14619;SDS011;32125;48.518;9.050;2023-01-24T15:16:32;15.57;;;10.93;;
14619;SDS011;32125;48.518;9.050;2023-01-24T15:19:04;14.60;;;10.47;;
14619;SDS011;32125;48.518;9.050;2023-01-24T15:21:37;16.50;;;13.00;;
14619;SDS011;32125;48.518;9.050;2023-01-24T15:24:04;16.17;;;10.67;;
14619;SDS011;32125;48.518;9.050;2023-01-24T15:29:45;14.43;;;10.97;;
14619;SDS011;32125;48.518;9.050;2023-01-24T15:31:49;12.97;;;10.37;;
14619;SDS011;32125;48.518;9.050;2023-01-24T15:34:17;17.07;;;11.17;;
14619;SDS011;32125;48.518;9.050;2023-01-24T15:36:44;16.50;;;11.03;;
14619;SDS011;32125;48.518;9.050;2023-01-24T15:39:11;14.90;;;11.07;;
14619;SDS011;32125;48.518;9.050;2023-01-24T15:41:38;19.27;;;11.53;;
14619;SDS011;32125;48.518;9.050;2023-01-24T15:44:23;15.63;;;11.13;;
14619;SDS011;32125;48.518;9.050;2023-01-24T15:46:54;17.33;;;11.07;;
14619;SDS011;32125;48.518;9.050;2023-01-24T15:49:40;15.80;;;11.47;;
14619;SDS011;32125;48.518;9.050;2023-01-24T15:54:35;16.27;;;11.23;;
14619;SDS011;32125;48.518;9.050;2023-01-24T15:57:04;19.67;;;12.90;;
14619;SDS011;32125;48.518;9.050;2023-01-24T15:59:40;17.60;;;12.70;;
14619;SDS011;32125;48.518;9.050;2023-01-24T16:02:14;18.77;;;12.43;;
14619;SDS011;32125;48.518;9.050;2023-01-24T16:04:40;16.67;;;12.40;;
14619;SDS011;32125;48.518;9.050;2023-01-24T16:07:06;18.23;;;12.10;;
14619;SDS011;32125;48.518;9.050;2023-01-24T16:09:33;20.03;;;12.17;;
14619;SDS011;32125;48.518;9.050;2023-01-24T16:11:59;18.13;;;12.17;;
14619;SDS011;32125;48.518;9.050;2023-01-24T16:14:26;18.30;;;12.30;;
14619;SDS011;32125;48.518;9.050;2023-01-24T16:16:54;16.13;;;12.57;;
14619;SDS011;32125;48.518;9.050;2023-01-24T16:19:24;18.20;;;13.30;;
14619;SDS011;32125;48.518;9.050;2023-01-24T16:21:50;18.63;;;12.63;;
14619;SDS011;32125;48.518;9.050;2023-01-24T16:24:19;18.07;;;12.03;;
14619;SDS011;32125;48.518;9.050;2023-01-24T16:26:48;18.87;;;12.77;;
14619;SDS011;32125;48.518;9.050;2023-01-24T16:29:22;20.47;;;14.20;;
14619;SDS011;32125;48.518;9.050;2023-01-24T16:31:49;19.13;;;12.57;;
14619;SDS011;32125;48.518;9.050;2023-01-24T16:34:15;18.07;;;12.43;;
14619;SDS011;32125;48.518;9.050;2023-01-24T16:36:43;19.03;;;12.63;;
14619;SDS011;32125;48.518;9.050;2023-01-24T16:39:10;18.70;;;12.60;;
14619;SDS011;32125;48.518;9.050;2023-01-24T16:41:42;18.40;;;13.00;;
14619;SDS011;32125;48.518;9.050;2023-01-24T16:44:08;18.43;;;13.50;;
14619;SDS011;32125;48.518;9.050;2023-01-24T16:46:34;20.50;;;13.93;;
14619;SDS011;32125;48.518;9.050;2023-01-24T16:49:00;18.53;;;13.50;;
14619;SDS011;32125;48.518;9.050;2023-01-24T16:51:26;17.97;;;12.80;;
14619;SDS011;32125;48.518;9.050;2023-01-24T16:53:55;19.00;;;13.03;;
14619;SDS011;32125;48.518;9.050;2023-01-24T16:56:22;19.03;;;13.37;;